sensor_id;sensor_type;location;lat;lon;timestamp;pressure;altitude;pressure_sealevel;temperature;humidity
23223;BME280;11780;13.904;100.620;2024-03-08T00:01:18;100907.72;;;32.37;67.19
23223;BME280;11780;13.904;100.620;2024-03-08T00:03:49;100920.56;;;32.41;67.28
23223;BME280;11780;13.904;100.620;2024-03-08T00:06:20;100913.03;;;32.42;67.18
23223;BME280;11780;13.904;100.620;2024-03-08T00:08:51;100916.16;;;32.40;67.32
23223;BME280;11780;13.904;100.620;2024-03-08T00:11:22;100924.81;;;32.39;67.61
23223;BME280;11780;13.904;100.620;2024-03-08T00:13:56;100922.69;;;32.36;67.87
23223;BME280;11780;13.904;100.620;2024-03-08T00:16:26;100921.88;;;32.35;68.02
23223;BME280;11780;13.904;100.620;2024-03-08T00:18:57;100928.72;;;32.38;68.22
23223;BME280;11780;13.904;100.620;2024-03-08T00:21:28;100923.97;;;32.38;67.94
23223;BME280;11780;13.904;100.620;2024-03-08T00:23:59;100927.41;;;32.35;68.29
23223;BME280;11780;13.904;100.620;2024-03-08T00:26:30;100934.06;;;32.34;67.99
23223;BME280;11780;13.904;100.620;2024-03-08T00:29:00;100936.84;;;32.34;67.96
23223;BME280;11780;13.904;100.620;2024-03-08T00:31:31;100941.72;;;32.37;68.26
23223;BME280;11780;13.904;100.620;2024-03-08T00:34:02;100944.19;;;32.39;68.21
23223;BME280;11780;13.904;100.620;2024-03-08T00:36:33;100943.69;;;32.37;68.32
23223;BME280;11780;13.904;100.620;2024-03-08T00:39:04;100954.78;;;32.37;68.14
23223;BME280;11780;13.904;100.620;2024-03-08T00:41:38;100954.09;;;32.40;68.19
23223;BME280;11780;13.904;100.620;2024-03-08T00:44:09;100960.78;;;32.39;68.44
23223;BME280;11780;13.904;100.620;2024-03-08T00:46:40;100966.78;;;32.41;68.32
23223;BME280;11780;13.904;100.620;2024-03-08T00:49:10;100967.94;;;32.40;68.32
23223;BME280;11780;13.904;100.620;2024-03-08T00:51:42;100968.75;;;32.40;68.48
23223;BME280;11780;13.904;100.620;2024-03-08T00:54:13;100975.09;;;32.41;68.38
23223;BME280;11780;13.904;100.620;2024-03-08T00:56:46;100978.69;;;32.41;68.24
23223;BME280;11780;13.904;100.620;2024-03-08T00:59:17;100978.84;;;32.45;68.38
23223;BME280;11780;13.904;100.620;2024-03-08T01:01:48;100982.75;;;32.44;68.29
23223;BME280;11780;13.904;100.620;2024-03-08T01:04:19;100989.13;;;32.44;68.41
23223;BME280;11780;13.904;100.620;2024-03-08T01:06:51;100992.03;;;32.48;68.32
23223;BME280;11780;13.904;100.620;2024-03-08T01:09:25;100984.53;;;32.48;68.21
23223;BME280;11780;13.904;100.620;2024-03-08T01:11:57;100993.97;;;32.47;68.15
23223;BME280;11780;13.904;100.620;2024-03-08T01:14:28;100994.47;;;32.49;68.24
23223;BME280;11780;13.904;100.620;2024-03-08T01:17:01;101006.22;;;32.46;68.14
23223;BME280;11780;13.904;100.620;2024-03-08T01:19:33;101009.13;;;32.50;68.24
23223;BME280;11780;13.904;100.620;2024-03-08T01:22:04;101016.44;;;32.55;68.02
23223;BME280;11780;13.904;100.620;2024-03-08T01:24:35;101007.66;;;32.53;67.98
23223;BME280;11780;13.904;100.620;2024-03-08T01:27:06;101006.16;;;32.55;68.00
23223;BME280;11780;13.904;100.620;2024-03-08T01:29:38;101016.94;;;32.57;67.98
23223;BME280;11780;13.904;100.620;2024-03-08T01:32:09;101019.38;;;32.58;67.92
23223;BME280;11780;13.904;100.620;2024-03-08T01:34:40;101032.56;;;32.61;67.65
23223;BME280;11780;13.904;100.620;2024-03-08T01:37:10;101025.88;;;32.62;67.55
23223;BME280;11780;13.904;100.620;2024-03-08T01:39:41;101033.03;;;32.63;67.57
23223;BME280;11780;13.904;100.620;2024-03-08T01:42:12;101039.06;;;32.65;67.44
23223;BME280;11780;13.904;100.620;2024-03-08T01:44:45;101045.25;;;32.71;67.27
23223;BME280;11780;13.904;100.620;2024-03-08T01:47:16;101043.78;;;32.65;67.27
23223;BME280;11780;13.904;100.620;2024-03-08T01:49:48;101044.59;;;32.65;66.84
23223;BME280;11780;13.904;100.620;2024-03-08T01:52:18;101057.47;;;32.70;66.75
23223;BME280;11780;13.904;100.620;2024-03-08T01:54:51;101055.84;;;32.69;67.04
23223;BME280;11780;13.904;100.620;2024-03-08T01:57:22;101053.91;;;32.70;66.53
23223;BME280;11780;13.904;100.620;2024-03-08T01:59:53;101057.13;;;32.72;66.79
23223;BME280;11780;13.904;100.620;2024-03-08T02:02:26;101059.44;;;32.70;66.58
23223;BME280;11780;13.904;100.620;2024-03-08T02:04:57;101057.78;;;32.77;66.34
23223;BME280;11780;13.904;100.620;2024-03-08T02:07:28;101063.66;;;32.76;66.10
23223;BME280;11780;13.904;100.620;2024-03-08T02:09:59;101067.69;;;32.78;66.13
23223;BME280;11780;13.904;100.620;2024-03-08T02:12:30;101071.16;;;32.75;66.04
23223;BME280;11780;13.904;100.620;2024-03-08T02:15:00;101070.31;;;32.75;65.84
23223;BME280;11780;13.904;100.620;2024-03-08T02:17:31;101069.19;;;32.76;65.75
23223;BME280;11780;13.904;100.620;2024-03-08T02:20:04;101070.47;;;32.78;65.71
23223;BME280;11780;13.904;100.620;2024-03-08T02:22:34;101071.63;;;32.77;65.61
23223;BME280;11780;13.904;100.620;2024-03-08T02:25:07;101071.63;;;32.77;65.50
23223;BME280;11780;13.904;100.620;2024-03-08T02:27:39;101069.31;;;32.79;65.66
23223;BME280;11780;13.904;100.620;2024-03-08T02:30:10;101077.34;;;32.81;65.46
23223;BME280;11780;13.904;100.620;2024-03-08T02:32:42;101082.03;;;32.80;65.39
23223;BME280;11780;13.904;100.620;2024-03-08T02:35:13;101086.16;;;32.83;64.89
23223;BME280;11780;13.904;100.620;2024-03-08T02:37:44;101072.94;;;32.80;65.01
23223;BME280;11780;13.904;100.620;2024-03-08T02:40:17;101086.16;;;32.83;64.87
23223;BME280;11780;13.904;100.620;2024-03-08T02:42:48;101080.63;;;32.83;64.83
23223;BME280;11780;13.904;100.620;2024-03-08T02:45:19;101088.25;;;32.86;64.78
23223;BME280;11780;13.904;100.620;2024-03-08T02:47:51;101087.78;;;32.84;64.59
23223;BME280;11780;13.904;100.620;2024-03-08T02:50:22;101082.25;;;32.84;64.38
23223;BME280;11780;13.904;100.620;2024-03-08T02:52:53;101090.56;;;32.84;64.31
23223;BME280;11780;13.904;100.620;2024-03-08T02:55:24;101091.84;;;32.87;64.14
23223;BME280;11780;13.904;100.620;2024-03-08T02:57:56;101088.25;;;32.86;63.98
23223;BME280;11780;13.904;100.620;2024-03-08T03:00:27;101091.69;;;32.92;63.91
23223;BME280;11780;13.904;100.620;2024-03-08T03:02:58;101089.72;;;32.92;63.95
23223;BME280;11780;13.904;100.620;2024-03-08T03:05:29;101099.50;;;32.90;63.81
23223;BME280;11780;13.904;100.620;2024-03-08T03:08:00;101105.03;;;32.90;63.79
23223;BME280;11780;13.904;100.620;2024-03-08T03:10:31;101101.44;;;32.89;63.83
23223;BME280;11780;13.904;100.620;2024-03-08T03:13:01;101096.88;;;32.93;63.55
23223;BME280;11780;13.904;100.620;2024-03-08T03:15:32;101103.22;;;32.94;63.48
23223;BME280;11780;13.904;100.620;2024-03-08T03:18:04;101103.22;;;32.94;63.53
23223;BME280;11780;13.904;100.620;2024-03-08T03:20:38;101096.53;;;32.95;63.21
23223;BME280;11780;13.904;100.620;2024-03-08T03:23:12;101091.00;;;32.95;63.18
23223;BME280;11780;13.904;100.620;2024-03-08T03:25:50;101094.59;;;32.95;63.27
23223;BME280;11780;13.904;100.620;2024-03-08T03:28:22;101099.31;;;32.95;63.18
23223;BME280;11780;13.904;100.620;2024-03-08T03:30:53;101097.03;;;32.97;63.05
23223;BME280;11780;13.904;100.620;2024-03-08T03:33:25;101091.47;;;32.97;62.94
23223;BME280;11780;13.904;100.620;2024-03-08T03:35:55;101091.47;;;32.97;62.61
23223;BME280;11780;13.904;100.620;2024-03-08T03:38:26;101092.31;;;32.98;62.88
23223;BME280;11780;13.904;100.620;2024-03-08T03:40:58;101086.91;;;33.01;62.81
23223;BME280;11780;13.904;100.620;2024-03-08T03:43:37;101075.03;;;33.01;62.72
23223;BME280;11780;13.904;100.620;2024-03-08T03:46:08;101073.06;;;33.01;62.59
23223;BME280;11780;13.904;100.620;2024-03-08T03:48:40;101070.28;;;33.01;62.75
23223;BME280;11780;13.904;100.620;2024-03-08T03:51:12;101069.94;;;33.03;62.57
23223;BME280;11780;13.904;100.620;2024-03-08T03:53:45;101069.63;;;33.04;62.60
23223;BME280;11780;13.904;100.620;2024-03-08T03:56:16;101073.22;;;33.05;62.60
23223;BME280;11780;13.904;100.620;2024-03-08T03:58:47;101065.06;;;33.08;62.44
23223;BME280;11780;13.904;100.620;2024-03-08T04:01:17;101059.19;;;33.10;62.20
23223;BME280;11780;13.904;100.620;2024-03-08T04:03:49;101052.00;;;33.09;61.95
23223;BME280;11780;13.904;100.620;2024-03-08T04:06:20;101053.16;;;33.08;62.14
23223;BME280;11780;13.904;100.620;2024-03-08T04:08:52;101056.41;;;33.10;62.14
23223;BME280;11780;13.904;100.620;2024-03-08T04:11:24;101038.28;;;33.13;61.91
23223;BME280;11780;13.904;100.620;2024-03-08T04:13:54;101041.06;;;33.13;61.59
23223;BME280;11780;13.904;100.620;2024-03-08T04:16:25;101029.31;;;33.16;61.55
23223;BME280;11780;13.904;100.620;2024-03-08T04:18:56;101028.81;;;33.14;61.47
23223;BME280;11780;13.904;100.620;2024-03-08T04:21:30;101017.44;;;33.15;61.36
23223;BME280;11780;13.904;100.620;2024-03-08T04:24:01;101023.28;;;33.14;61.76
23223;BME280;11780;13.904;100.620;2024-03-08T04:26:32;101020.66;;;33.17;61.44
23223;BME280;11780;13.904;100.620;2024-03-08T04:29:04;101009.25;;;33.19;61.10
23223;BME280;11780;13.904;100.620;2024-03-08T04:31:35;101011.84;;;33.24;61.11
23223;BME280;11780;13.904;100.620;2024-03-08T04:34:06;101003.34;;;33.20;60.87
23223;BME280;11780;13.904;100.620;2024-03-08T04:36:36;100996.66;;;33.21;60.92
23223;BME280;11780;13.904;100.620;2024-03-08T04:39:08;100990.94;;;33.27;60.70
23223;BME280;11780;13.904;100.620;2024-03-08T04:41:43;100988.97;;;33.27;60.82
23223;BME280;11780;13.904;100.620;2024-03-08T04:44:14;100988.97;;;33.27;60.49
23223;BME280;11780;13.904;100.620;2024-03-08T04:46:44;100981.97;;;33.30;60.26
23223;BME280;11780;13.904;100.620;2024-03-08T04:49:15;100982.75;;;33.30;60.69
23223;BME280;11780;13.904;100.620;2024-03-08T04:51:46;100987.16;;;33.31;60.26
23223;BME280;11780;13.904;100.620;2024-03-08T04:54:18;100973.31;;;33.31;60.25
23223;BME280;11780;13.904;100.620;2024-03-08T04:56:49;100965.34;;;33.30;60.37
23223;BME280;11780;13.904;100.620;2024-03-08T04:59:20;100970.06;;;33.29;60.42
23223;BME280;11780;13.904;100.620;2024-03-08T05:01:51;100969.22;;;33.37;60.45
23223;BME280;11780;13.904;100.620;2024-03-08T05:04:22;100960.09;;;33.37;60.15
23223;BME280;11780;13.904;100.620;2024-03-08T05:06:52;100956.66;;;33.40;60.24
23223;BME280;11780;13.904;100.620;2024-03-08T05:09:23;100957.91;;;33.43;59.79
23223;BME280;11780;13.904;100.620;2024-03-08T05:11:54;100953.22;;;33.43;59.96
23223;BME280;11780;13.904;100.620;2024-03-08T05:14:26;100939.34;;;33.43;59.98
23223;BME280;11780;13.904;100.620;2024-03-08T05:16:56;100946.84;;;33.43;60.10
23223;BME280;11780;13.904;100.620;2024-03-08T05:19:27;100936.22;;;33.45;59.73
23223;BME280;11780;13.904;100.620;2024-03-08T05:22:02;100932.78;;;33.48;59.54
23223;BME280;11780;13.904;100.620;2024-03-08T05:24:33;100925.41;;;33.52;59.60
23223;BME280;11780;13.904;100.620;2024-03-08T05:27:04;100919.72;;;33.48;59.67
23223;BME280;11780;13.904;100.620;2024-03-08T05:29:35;100922.28;;;33.53;59.79
23223;BME280;11780;13.904;100.620;2024-03-08T05:32:06;100921.97;;;33.55;59.29
23223;BME280;11780;13.904;100.620;2024-03-08T05:34:37;100919.50;;;33.53;59.39
23223;BME280;11780;13.904;100.620;2024-03-08T05:37:08;100913.31;;;33.57;58.94
23223;BME280;11780;13.904;100.620;2024-03-08T05:39:39;100895.16;;;33.59;58.75
23223;BME280;11780;13.904;100.620;2024-03-08T05:42:11;100910.66;;;33.60;58.77
23223;BME280;11780;13.904;100.620;2024-03-08T05:44:42;100898.75;;;33.60;58.55
23223;BME280;11780;13.904;100.620;2024-03-08T05:47:14;100898.41;;;33.61;58.31
23223;BME280;11780;13.904;100.620;2024-03-08T05:49:46;100894.47;;;33.62;57.94
23223;BME280;11780;13.904;100.620;2024-03-08T05:52:17;100883.88;;;33.64;57.45
23223;BME280;11780;13.904;100.620;2024-03-08T05:54:47;100884.66;;;33.65;57.20
23223;BME280;11780;13.904;100.620;2024-03-08T05:57:18;100873.91;;;33.63;57.37
23223;BME280;11780;13.904;100.620;2024-03-08T05:59:49;100879.94;;;33.65;56.96
23223;BME280;11780;13.904;100.620;2024-03-08T06:02:20;100885.28;;;33.70;56.33
23223;BME280;11780;13.904;100.620;2024-03-08T06:04:51;100883.66;;;33.69;56.28
23223;BME280;11780;13.904;100.620;2024-03-08T06:07:21;100879.03;;;33.74;56.00
23223;BME280;11780;13.904;100.620;2024-03-08T06:09:52;100871.44;;;33.70;55.40
23223;BME280;11780;13.904;100.620;2024-03-08T06:12:23;100859.28;;;33.75;54.61
23223;BME280;11780;13.904;100.620;2024-03-08T06:14:59;100858.63;;;33.78;53.79
23223;BME280;11780;13.904;100.620;2024-03-08T06:17:30;100847.16;;;33.80;53.64
23223;BME280;11780;13.904;100.620;2024-03-08T06:20:01;100852.59;;;33.76;53.54
23223;BME280;11780;13.904;100.620;2024-03-08T06:22:35;100842.41;;;33.80;53.23
23223;BME280;11780;13.904;100.620;2024-03-08T06:25:06;100838.84;;;33.80;53.31
23223;BME280;11780;13.904;100.620;2024-03-08T06:27:37;100836.53;;;33.82;53.04
23223;BME280;11780;13.904;100.620;2024-03-08T06:30:08;100825.44;;;33.82;53.24
23223;BME280;11780;13.904;100.620;2024-03-08T06:32:40;100833.31;;;33.80;53.31
23223;BME280;11780;13.904;100.620;2024-03-08T06:35:13;100824.28;;;33.83;53.14
23223;BME280;11780;13.904;100.620;2024-03-08T06:37:46;100817.91;;;33.82;52.85
23223;BME280;11780;13.904;100.620;2024-03-08T06:40:17;100818.28;;;33.81;52.42
23223;BME280;11780;13.904;100.620;2024-03-08T06:42:47;100807.19;;;33.81;52.55
23223;BME280;11780;13.904;100.620;2024-03-08T06:45:18;100808.91;;;33.85;52.29
23223;BME280;11780;13.904;100.620;2024-03-08T06:47:51;100797.97;;;33.89;52.14
23223;BME280;11780;13.904;100.620;2024-03-08T06:50:22;100795.19;;;33.89;51.86
23223;BME280;11780;13.904;100.620;2024-03-08T06:52:53;100792.88;;;33.91;51.81
23223;BME280;11780;13.904;100.620;2024-03-08T06:55:24;100783.09;;;33.94;51.32
23223;BME280;11780;13.904;100.620;2024-03-08T06:57:55;100776.72;;;33.93;51.25
23223;BME280;11780;13.904;100.620;2024-03-08T07:00:25;100772.78;;;33.94;51.19
23223;BME280;11780;13.904;100.620;2024-03-08T07:02:59;100783.19;;;33.97;50.93
23223;BME280;11780;13.904;100.620;2024-03-08T07:05:32;100777.28;;;33.99;50.84
23223;BME280;11780;13.904;100.620;2024-03-08T07:08:04;100761.94;;;34.02;50.65
23223;BME280;11780;13.904;100.620;2024-03-08T07:10:36;100766.31;;;34.03;50.52
23223;BME280;11780;13.904;100.620;2024-03-08T07:13:07;100760.31;;;34.00;50.29
23223;BME280;11780;13.904;100.620;2024-03-08T07:15:38;100754.75;;;34.00;49.76
23223;BME280;11780;13.904;100.620;2024-03-08T07:18:09;100758.34;;;34.01;49.68
23223;BME280;11780;13.904;100.620;2024-03-08T07:20:46;100751.16;;;34.00;49.54
23223;BME280;11780;13.904;100.620;2024-03-08T07:23:16;100746.06;;;34.02;49.33
23223;BME280;11780;13.904;100.620;2024-03-08T07:26:07;100739.25;;;33.99;48.88
23223;BME280;11780;13.904;100.620;2024-03-08T07:28:37;100735.78;;;34.03;48.61
23223;BME280;11780;13.904;100.620;2024-03-08T07:31:08;100734.19;;;34.02;48.25
23223;BME280;11780;13.904;100.620;2024-03-08T07:33:45;100723.75;;;33.98;48.34
23223;BME280;11780;13.904;100.620;2024-03-08T07:36:16;100724.09;;;33.97;48.31
23223;BME280;11780;13.904;100.620;2024-03-08T07:38:47;100720.16;;;33.98;48.25
23223;BME280;11780;13.904;100.620;2024-03-08T07:41:18;100719.38;;;33.97;48.27
23223;BME280;11780;13.904;100.620;2024-03-08T07:43:50;100716.25;;;33.99;47.92
23223;BME280;11780;13.904;100.620;2024-03-08T07:46:21;100708.28;;;33.97;48.17
23223;BME280;11780;13.904;100.620;2024-03-08T07:48:51;100706.28;;;33.98;48.06
23223;BME280;11780;13.904;100.620;2024-03-08T07:51:23;100695.88;;;33.95;47.83
23223;BME280;11780;13.904;100.620;2024-03-08T07:53:54;100696.03;;;33.98;47.87
23223;BME280;11780;13.904;100.620;2024-03-08T07:56:30;100696.81;;;33.99;47.78
23223;BME280;11780;13.904;100.620;2024-03-08T07:59:03;100690.94;;;34.00;48.21
23223;BME280;11780;13.904;100.620;2024-03-08T08:01:35;100685.72;;;33.99;48.32
23223;BME280;11780;13.904;100.620;2024-03-08T08:04:06;100671.84;;;33.99;48.49
23223;BME280;11780;13.904;100.620;2024-03-08T08:06:42;100664.34;;;33.99;49.05
23223;BME280;11780;13.904;100.620;2024-03-08T08:09:13;100674.38;;;34.04;48.91
23223;BME280;11780;13.904;100.620;2024-03-08T08:11:58;100663.63;;;34.03;49.42
23223;BME280;11780;13.904;100.620;2024-03-08T08:14:29;100671.25;;;34.06;49.88
23223;BME280;11780;13.904;100.620;2024-03-08T08:16:59;100658.19;;;34.06;50.44
23223;BME280;11780;13.904;100.620;2024-03-08T08:19:34;100659.00;;;34.07;50.89
23223;BME280;11780;13.904;100.620;2024-03-08T08:22:05;100661.09;;;34.10;51.15
23223;BME280;11780;13.904;100.620;2024-03-08T08:24:38;100663.84;;;34.10;51.67
23223;BME280;11780;13.904;100.620;2024-03-08T08:27:10;100655.16;;;34.11;52.09
23223;BME280;11780;13.904;100.620;2024-03-08T08:29:41;100656.00;;;34.12;52.58
23223;BME280;11780;13.904;100.620;2024-03-08T08:32:13;100660.03;;;34.14;53.12
23223;BME280;11780;13.904;100.620;2024-03-08T08:34:44;100650.91;;;34.14;53.47
23223;BME280;11780;13.904;100.620;2024-03-08T08:37:16;100648.47;;;34.12;53.74
23223;BME280;11780;13.904;100.620;2024-03-08T08:39:50;100650.91;;;34.14;54.29
23223;BME280;11780;13.904;100.620;2024-03-08T08:42:21;100653.78;;;34.18;54.18
23223;BME280;11780;13.904;100.620;2024-03-08T08:44:52;100651.38;;;34.16;54.80
23223;BME280;11780;13.904;100.620;2024-03-08T08:47:26;100655.41;;;34.19;55.02
23223;BME280;11780;13.904;100.620;2024-03-08T08:49:57;100657.81;;;34.20;55.37
23223;BME280;11780;13.904;100.620;2024-03-08T08:52:28;100653.88;;;34.21;55.49
23223;BME280;11780;13.904;100.620;2024-03-08T08:54:59;100649.16;;;34.22;55.49
23223;BME280;11780;13.904;100.620;2024-03-08T08:57:30;100644.41;;;34.22;55.55
23223;BME280;11780;13.904;100.620;2024-03-08T09:00:04;100640.38;;;34.20;55.83
23223;BME280;11780;13.904;100.620;2024-03-08T09:02:37;100642.47;;;34.23;56.21
23223;BME280;11780;13.904;100.620;2024-03-08T09:05:08;100643.72;;;34.25;55.96
23223;BME280;11780;13.904;100.620;2024-03-08T09:07:39;100635.84;;;34.27;55.85
23223;BME280;11780;13.904;100.620;2024-03-08T09:10:10;100647.28;;;34.26;55.88
23223;BME280;11780;13.904;100.620;2024-03-08T09:12:45;100642.09;;;34.24;56.28
23223;BME280;11780;13.904;100.620;2024-03-08T09:15:15;100642.19;;;34.28;56.07
23223;BME280;11780;13.904;100.620;2024-03-08T09:17:50;100644.16;;;34.27;56.42
23223;BME280;11780;13.904;100.620;2024-03-08T09:20:21;100646.50;;;34.25;56.73
23223;BME280;11780;13.904;100.620;2024-03-08T09:22:52;100643.72;;;34.25;56.87
23223;BME280;11780;13.904;100.620;2024-03-08T09:25:23;100648.56;;;34.28;56.73
23223;BME280;11780;13.904;100.620;2024-03-08T09:27:55;100652.13;;;34.29;56.98
23223;BME280;11780;13.904;100.620;2024-03-08T09:30:26;100648.66;;;34.32;57.07
23223;BME280;11780;13.904;100.620;2024-03-08T09:32:57;100657.34;;;34.30;57.24
23223;BME280;11780;13.904;100.620;2024-03-08T09:35:27;100650.19;;;34.29;57.62
23223;BME280;11780;13.904;100.620;2024-03-08T09:38:00;100644.50;;;34.26;57.64
23223;BME280;11780;13.904;100.620;2024-03-08T09:40:31;100647.28;;;34.26;57.78
23223;BME280;11780;13.904;100.620;2024-03-08T09:43:02;100652.97;;;34.29;57.94
23223;BME280;11780;13.904;100.620;2024-03-08T09:45:35;100652.97;;;34.29;57.75
23223;BME280;11780;13.904;100.620;2024-03-08T09:48:12;100640.56;;;34.27;58.01
23223;BME280;11780;13.904;100.620;2024-03-08T09:50:44;100653.66;;;34.26;57.94
23223;BME280;11780;13.904;100.620;2024-03-08T09:53:15;100663.25;;;34.29;58.01
23223;BME280;11780;13.904;100.620;2024-03-08T09:55:47;100663.59;;;34.27;57.95
23223;BME280;11780;13.904;100.620;2024-03-08T09:58:19;100656.78;;;34.25;58.13
23223;BME280;11780;13.904;100.620;2024-03-08T10:00:56;100666.28;;;34.24;58.38
23223;BME280;11780;13.904;100.620;2024-03-08T10:03:27;100666.72;;;34.26;57.91
23223;BME280;11780;13.904;100.620;2024-03-08T10:05:58;100661.53;;;34.24;58.23
23223;BME280;11780;13.904;100.620;2024-03-08T10:08:31;100662.00;;;34.26;57.96
23223;BME280;11780;13.904;100.620;2024-03-08T10:11:02;100670.31;;;34.26;57.91
23223;BME280;11780;13.904;100.620;2024-03-08T10:13:33;100675.03;;;34.26;58.30
23223;BME280;11780;13.904;100.620;2024-03-08T10:16:05;100674.59;;;34.24;58.02
23223;BME280;11780;13.904;100.620;2024-03-08T10:18:36;100674.25;;;34.25;57.91
23223;BME280;11780;13.904;100.620;2024-03-08T10:21:08;100679.00;;;34.25;57.71
23223;BME280;11780;13.904;100.620;2024-03-08T10:23:43;100678.06;;;34.21;58.03
23223;BME280;11780;13.904;100.620;2024-03-08T10:26:16;100674.59;;;34.24;57.97
23223;BME280;11780;13.904;100.620;2024-03-08T10:28:48;100687.66;;;34.23;58.16
23223;BME280;11780;13.904;100.620;2024-03-08T10:31:20;100683.28;;;34.22;58.07
23223;BME280;11780;13.904;100.620;2024-03-08T10:33:51;100694.03;;;34.24;58.12
23223;BME280;11780;13.904;100.620;2024-03-08T10:36:22;100698.19;;;34.18;58.28
23223;BME280;11780;13.904;100.620;2024-03-08T10:38:54;100690.66;;;34.18;58.31
23223;BME280;11780;13.904;100.620;2024-03-08T10:41:29;100687.88;;;34.18;58.38
23223;BME280;11780;13.904;100.620;2024-03-08T10:47:22;100698.09;;;34.14;58.52
23223;BME280;11780;13.904;100.620;2024-03-08T10:50:20;100703.19;;;34.12;58.99
23223;BME280;11780;13.904;100.620;2024-03-08T10:52:52;100696.81;;;34.11;58.80
23223;BME280;11780;13.904;100.620;2024-03-08T10:55:24;100706.75;;;34.12;58.88
23223;BME280;11780;13.904;100.620;2024-03-08T10:57:57;100710.69;;;34.11;58.97
23223;BME280;11780;13.904;100.620;2024-03-08T11:00:27;100708.72;;;34.12;58.94
23223;BME280;11780;13.904;100.620;2024-03-08T11:02:59;100713.81;;;34.10;58.89
23223;BME280;11780;13.904;100.620;2024-03-08T11:05:40;100712.19;;;34.09;58.88
23223;BME280;11780;13.904;100.620;2024-03-08T11:08:22;100715.34;;;34.07;59.04
23223;BME280;11780;13.904;100.620;2024-03-08T11:10:54;100715.34;;;34.07;59.05
23223;BME280;11780;13.904;100.620;2024-03-08T11:16:36;100727.22;;;34.08;59.55
23223;BME280;11780;13.904;100.620;2024-03-08T11:21:37;100733.00;;;34.03;59.63
23223;BME280;11780;13.904;100.620;2024-03-08T11:24:14;100731.41;;;34.02;59.97
23223;BME280;11780;13.904;100.620;2024-03-08T11:26:46;100740.41;;;33.98;60.13
23223;BME280;11780;13.904;100.620;2024-03-08T11:34:48;100751.25;;;33.91;60.77
23223;BME280;11780;13.904;100.620;2024-03-08T11:37:21;100753.56;;;33.89;60.63
23223;BME280;11780;13.904;100.620;2024-03-08T11:39:54;100755.56;;;33.89;60.74
23223;BME280;11780;13.904;100.620;2024-03-08T11:42:32;100756.19;;;33.85;60.53
23223;BME280;11780;13.904;100.620;2024-03-08T11:45:08;100752.88;;;33.92;60.44
23223;BME280;11780;13.904;100.620;2024-03-08T11:47:44;100755.41;;;33.85;60.55
23223;BME280;11780;13.904;100.620;2024-03-08T11:50:20;100761.75;;;33.85;60.78
23223;BME280;11780;13.904;100.620;2024-03-08T11:52:53;100762.72;;;33.90;60.51
23223;BME280;11780;13.904;100.620;2024-03-08T11:55:31;100764.66;;;33.89;60.62
23223;BME280;11780;13.904;100.620;2024-03-08T11:58:06;100774.00;;;33.84;60.35
23223;BME280;11780;13.904;100.620;2024-03-08T12:00:41;100771.59;;;33.83;60.32
23223;BME280;11780;13.904;100.620;2024-03-08T12:03:12;100780.38;;;33.85;60.21
23223;BME280;11780;13.904;100.620;2024-03-08T12:05:43;100781.84;;;33.82;60.30
23223;BME280;11780;13.904;100.620;2024-03-08T12:08:14;100781.06;;;33.82;60.00
23223;BME280;11780;13.904;100.620;2024-03-08T12:10:45;100780.59;;;33.80;60.38
23223;BME280;11780;13.904;100.620;2024-03-08T12:13:16;100790.06;;;33.79;60.37
23223;BME280;11780;13.904;100.620;2024-03-08T12:15:48;100790.53;;;33.81;60.30
23223;BME280;11780;13.904;100.620;2024-03-08T12:18:18;100798.25;;;33.75;60.07
23223;BME280;11780;13.904;100.620;2024-03-08T12:20:49;100811.31;;;33.75;60.12
23223;BME280;11780;13.904;100.620;2024-03-08T12:23:20;100811.78;;;33.77;60.43
23223;BME280;11780;13.904;100.620;2024-03-08T12:25:51;100818.00;;;33.74;60.52
23223;BME280;11780;13.904;100.620;2024-03-08T12:28:22;100820.31;;;33.71;60.53
23223;BME280;11780;13.904;100.620;2024-03-08T12:30:53;100832.72;;;33.74;60.59
23223;BME280;11780;13.904;100.620;2024-03-08T12:33:30;100836.28;;;33.75;60.56
23223;BME280;11780;13.904;100.620;2024-03-08T12:36:02;100827.94;;;33.75;60.06
23223;BME280;11780;13.904;100.620;2024-03-08T12:38:38;100843.31;;;33.72;59.98
23223;BME280;11780;13.904;100.620;2024-03-08T12:41:09;100843.81;;;33.74;60.22
23223;BME280;11780;13.904;100.620;2024-03-08T12:43:39;100842.06;;;33.69;60.48
23223;BME280;11780;13.904;100.620;2024-03-08T12:46:10;100842.06;;;33.69;60.34
23223;BME280;11780;13.904;100.620;2024-03-08T12:48:43;100845.75;;;33.74;60.63
23223;BME280;11780;13.904;100.620;2024-03-08T12:51:18;100858.00;;;33.73;60.49
23223;BME280;11780;13.904;100.620;2024-03-08T12:53:49;100852.44;;;33.73;60.73
23223;BME280;11780;13.904;100.620;2024-03-08T12:56:32;100872.56;;;33.69;61.18
23223;BME280;11780;13.904;100.620;2024-03-08T12:59:05;100864.94;;;33.66;61.25
23223;BME280;11780;13.904;100.620;2024-03-08T13:01:36;100877.66;;;33.67;61.10
23223;BME280;11780;13.904;100.620;2024-03-08T13:04:07;100878.31;;;33.64;60.97
23223;BME280;11780;13.904;100.620;2024-03-08T13:06:41;100886.53;;;33.61;61.09
23223;BME280;11780;13.904;100.620;2024-03-08T13:09:12;100884.91;;;33.60;61.24